createdAt,value
2018-07-14T00:00:43.495Z,0
2018-07-14T00:01:45.278Z,0
2018-07-14T00:02:47.385Z,0
2018-07-14T00:03:48.962Z,0
2018-07-14T00:04:50.583Z,0
2018-07-14T00:05:53.383Z,0
2018-07-14T00:06:57.001Z,0
2018-07-14T00:08:00.016Z,0
2018-07-14T00:09:02.824Z,0
2018-07-14T00:10:05.538Z,0
2018-07-14T00:11:07.044Z,0
2018-07-14T00:12:08.658Z,0
2018-07-14T00:13:10.275Z,0
2018-07-14T00:14:11.889Z,0
2018-07-14T00:15:13.506Z,0
2018-07-14T00:16:15.126Z,0
2018-07-14T00:17:16.744Z,0
2018-07-14T00:18:18.370Z,0
2018-07-14T00:19:19.978Z,0
2018-07-14T00:20:21.598Z,0
2018-07-14T00:21:23.219Z,0
2018-07-14T00:22:24.831Z,0
2018-07-14T00:23:26.455Z,0
2018-07-14T00:24:28.145Z,0
2018-07-14T00:25:29.690Z,0
2018-07-14T00:26:31.306Z,0
2018-07-14T00:27:32.920Z,0
2018-07-14T00:28:34.541Z,0
2018-07-14T00:29:36.185Z,0
2018-07-14T00:30:37.800Z,0
2018-07-14T00:31:39.423Z,0
2018-07-14T00:32:41.037Z,0
2018-07-14T00:33:42.651Z,0
2018-07-14T00:34:44.275Z,0
2018-07-14T00:35:45.885Z,0
2018-07-14T00:36:47.507Z,0
2018-07-14T00:37:49.124Z,0
2018-07-14T00:38:50.742Z,0
2018-07-14T00:39:52.357Z,0
2018-07-14T00:40:53.981Z,0
2018-07-14T00:41:55.600Z,0
2018-07-14T00:42:57.218Z,0
2018-07-14T00:43:58.829Z,0
2018-07-14T00:45:00.458Z,0
2018-07-14T00:46:02.077Z,0
2018-07-14T00:47:03.692Z,0
2018-07-14T00:48:05.323Z,0
2018-07-14T00:49:06.926Z,0
2018-07-14T00:50:08.542Z,0
2018-07-14T00:51:10.163Z,0
2018-07-14T00:52:11.778Z,0
2018-07-14T00:53:13.399Z,0
2018-07-14T00:54:15.018Z,0
2018-07-14T00:55:16.635Z,0
2018-07-14T00:56:18.251Z,0
2018-07-14T00:57:19.867Z,0
2018-07-14T00:58:21.485Z,0
2018-07-14T00:59:23.107Z,0
2018-07-14T01:00:24.721Z,0
2018-07-14T01:01:26.336Z,0
2018-07-14T01:02:27.960Z,0
2018-07-14T01:03:29.575Z,0
2018-07-14T01:04:31.186Z,0
2018-07-14T01:05:32.804Z,0
2018-07-14T01:06:34.419Z,0
2018-07-14T01:07:36.038Z,0
2018-07-14T01:08:37.660Z,0
2018-07-14T01:09:39.281Z,0
2018-07-14T01:10:40.897Z,0
2018-07-14T01:11:42.508Z,0
2018-07-14T01:12:44.121Z,0
2018-07-14T01:13:45.741Z,0
2018-07-14T01:14:47.359Z,0
2018-07-14T01:15:48.974Z,0
2018-07-14T01:16:50.593Z,0
2018-07-14T01:17:52.275Z,0
2018-07-14T01:18:53.831Z,0
2018-07-14T01:19:55.453Z,0
2018-07-14T01:20:57.073Z,0
2018-07-14T01:21:58.682Z,0
2018-07-14T01:23:00.310Z,0
2018-07-14T01:24:01.927Z,0
2018-07-14T01:25:03.537Z,0
2018-07-14T01:26:05.150Z,0
2018-07-14T01:27:06.770Z,0
2018-07-14T01:28:08.390Z,0
2018-07-14T01:29:10.009Z,0
2018-07-14T01:30:11.626Z,0
2018-07-14T01:31:13.249Z,0
2018-07-14T01:32:14.867Z,0
2018-07-14T01:33:16.477Z,0
2018-07-14T01:34:18.098Z,0
2018-07-14T01:35:19.717Z,0
2018-07-14T01:36:21.332Z,0
2018-07-14T01:37:22.950Z,0
2018-07-14T01:38:24.578Z,0
2018-07-14T01:39:26.193Z,0
2018-07-14T01:40:27.812Z,0
2018-07-14T01:41:29.428Z,0
2018-07-14T01:42:31.041Z,0
2018-07-14T01:43:32.666Z,0
2018-07-14T01:44:34.283Z,0
2018-07-14T01:45:35.901Z,0
2018-07-14T01:46:37.517Z,0
2018-07-14T01:47:39.135Z,0
2018-07-14T01:48:40.749Z,0
2018-07-14T01:49:42.366Z,0
2018-07-14T01:50:43.986Z,0
2018-07-14T01:51:45.602Z,0
2018-07-14T01:52:47.218Z,0
2018-07-14T01:53:48.842Z,0
2018-07-14T01:54:50.454Z,0
2018-07-14T01:55:52.073Z,0
2018-07-14T01:56:53.689Z,0
2018-07-14T01:57:55.307Z,0
2018-07-14T01:58:56.924Z,0
2018-07-14T01:59:58.541Z,0
2018-07-14T02:01:00.168Z,0
2018-07-14T02:02:01.780Z,0
2018-07-14T02:03:03.399Z,0
2018-07-14T02:04:05.021Z,0
2018-07-14T02:05:06.632Z,0
2018-07-14T02:06:08.254Z,0
2018-07-14T02:07:09.874Z,0
2018-07-14T02:08:11.490Z,0
2018-07-14T02:09:13.103Z,0
2018-07-14T02:10:14.717Z,0
2018-07-14T02:11:16.337Z,0
2018-07-14T02:12:17.957Z,0
2018-07-14T02:13:19.576Z,0
2018-07-14T02:14:21.199Z,0
2018-07-14T02:15:22.809Z,0
2018-07-14T02:16:24.425Z,0
2018-07-14T02:17:26.046Z,0
2018-07-14T02:18:27.664Z,0
2018-07-14T02:19:29.278Z,0
2018-07-14T02:20:30.898Z,0
2018-07-14T02:21:32.517Z,0
2018-07-14T02:22:34.132Z,0
2018-07-14T02:23:35.749Z,0
2018-07-14T02:24:37.367Z,0
2018-07-14T02:25:38.982Z,0
2018-07-14T02:26:40.611Z,0
2018-07-14T02:27:42.221Z,0
2018-07-14T02:28:43.844Z,0
2018-07-14T02:29:45.464Z,0
2018-07-14T02:30:47.082Z,0
2018-07-14T02:31:48.695Z,0
2018-07-14T02:32:50.315Z,0
2018-07-14T02:33:51.937Z,0
2018-07-14T02:34:53.554Z,0
2018-07-14T02:35:55.180Z,0
2018-07-14T02:36:56.788Z,0
2018-07-14T02:37:58.408Z,0
2018-07-14T02:39:00.029Z,0
2018-07-14T02:40:01.648Z,0
2018-07-14T02:41:03.264Z,0
2018-07-14T02:42:04.887Z,0
2018-07-14T02:43:06.503Z,0
2018-07-14T02:44:08.121Z,0
2018-07-14T02:45:09.737Z,0
2018-07-14T02:46:11.351Z,0
2018-07-14T02:47:12.976Z,0
2018-07-14T02:48:14.590Z,0
2018-07-14T02:49:16.206Z,0
2018-07-14T02:50:18.353Z,0
2018-07-14T02:51:19.967Z,0
2018-07-14T02:52:21.589Z,0
2018-07-14T02:53:23.209Z,0
2018-07-14T02:54:24.825Z,0
2018-07-14T02:55:26.444Z,0
2018-07-14T02:56:28.071Z,0
2018-07-14T02:57:29.687Z,0
2018-07-14T02:58:31.300Z,0
2018-07-14T02:59:32.917Z,0
2018-07-14T03:00:34.534Z,0
2018-07-14T03:01:36.157Z,0
2018-07-14T03:02:37.775Z,0
2018-07-14T03:03:39.393Z,0
2018-07-14T03:04:41.022Z,0
2018-07-14T03:05:42.640Z,0
2018-07-14T03:06:44.256Z,0
2018-07-14T03:07:45.872Z,0
2018-07-14T03:08:47.495Z,0
2018-07-14T03:09:49.111Z,0
2018-07-14T03:10:50.734Z,0
2018-07-14T03:11:52.366Z,0
2018-07-14T03:12:54.099Z,0
2018-07-14T03:13:55.604Z,0
2018-07-14T03:14:57.220Z,0
2018-07-14T03:15:58.841Z,0
2018-07-14T03:17:00.460Z,5
2018-07-14T03:18:02.074Z,5
2018-07-14T03:19:04.331Z,5
2018-07-14T03:20:05.952Z,5
2018-07-14T03:21:08.168Z,5
2018-07-14T03:22:09.792Z,5
2018-07-14T03:23:11.407Z,5
2018-07-14T03:24:13.029Z,5
2018-07-14T03:25:14.653Z,11
2018-07-14T03:26:16.274Z,11
2018-07-14T03:27:17.896Z,11
2018-07-14T03:28:19.514Z,11
2018-07-14T03:29:21.135Z,11
2018-07-14T03:30:22.756Z,16
2018-07-14T03:31:24.382Z,16
2018-07-14T03:32:26.003Z,16
2018-07-14T03:33:27.627Z,16
2018-07-14T03:34:29.245Z,22
2018-07-14T03:35:30.871Z,22
2018-07-14T03:36:32.543Z,22
2018-07-14T03:37:34.107Z,22
2018-07-14T03:38:35.726Z,28
2018-07-14T03:39:37.352Z,28
2018-07-14T03:40:38.974Z,28
2018-07-14T03:41:40.596Z,33
2018-07-14T03:42:42.221Z,33
2018-07-14T03:43:43.835Z,33
2018-07-14T03:44:45.459Z,39
2018-07-14T03:45:47.078Z,39
2018-07-14T03:46:48.727Z,39
2018-07-14T03:47:50.350Z,45
2018-07-14T03:48:51.971Z,45
2018-07-14T03:49:53.590Z,50
2018-07-14T03:50:55.208Z,50
2018-07-14T03:51:56.831Z,50
2018-07-14T03:52:58.459Z,56
2018-07-14T03:54:00.072Z,56
2018-07-14T03:55:01.695Z,61
2018-07-14T03:56:03.314Z,61
2018-07-14T03:57:04.929Z,61
2018-07-14T03:58:06.557Z,67
2018-07-14T03:59:08.178Z,67
2018-07-14T04:00:09.798Z,73
2018-07-14T04:01:12.246Z,73
2018-07-14T04:02:13.871Z,78
2018-07-14T04:03:15.487Z,78
2018-07-14T04:04:17.113Z,78
2018-07-14T04:05:18.736Z,84
2018-07-14T04:06:20.358Z,84
2018-07-14T04:07:21.984Z,90
2018-07-14T04:08:23.601Z,90
2018-07-14T04:09:25.226Z,95
2018-07-14T04:10:26.843Z,95
2018-07-14T04:11:28.471Z,101
2018-07-14T04:12:30.090Z,101
2018-07-14T04:13:31.712Z,106
2018-07-14T04:14:33.340Z,112
2018-07-14T04:15:34.962Z,112
2018-07-14T04:16:36.591Z,118
2018-07-14T04:17:38.206Z,118
2018-07-14T04:18:39.832Z,123
2018-07-14T04:19:41.456Z,123
2018-07-14T04:20:43.078Z,129
2018-07-14T04:21:44.704Z,129
2018-07-14T04:22:46.332Z,135
2018-07-14T04:23:47.960Z,140
2018-07-14T04:24:49.581Z,140
2018-07-14T04:25:51.212Z,146
2018-07-14T04:26:52.837Z,146
2018-07-14T04:27:54.461Z,151
2018-07-14T04:28:56.086Z,157
2018-07-14T04:29:57.712Z,157
2018-07-14T04:30:59.331Z,157
2018-07-14T04:32:01.011Z,157
2018-07-14T04:33:02.581Z,163
2018-07-14T04:34:04.203Z,168
2018-07-14T04:35:05.823Z,174
2018-07-14T04:36:07.445Z,174
2018-07-14T04:37:09.070Z,180
2018-07-14T04:38:10.694Z,185
2018-07-14T04:39:12.310Z,191
2018-07-14T04:40:13.938Z,191
2018-07-14T04:41:15.559Z,196
2018-07-14T04:42:17.236Z,202
2018-07-14T04:43:18.807Z,202
2018-07-14T04:44:20.431Z,208
2018-07-14T04:45:22.061Z,213
2018-07-14T04:46:23.682Z,213
2018-07-14T04:47:25.306Z,219
2018-07-14T04:48:26.937Z,219
2018-07-14T04:49:28.572Z,225
2018-07-14T04:50:30.175Z,225
2018-07-14T04:51:31.802Z,230
2018-07-14T04:52:33.430Z,236
2018-07-14T04:53:35.053Z,236
2018-07-14T04:54:36.674Z,241
2018-07-14T04:55:38.297Z,247
2018-07-14T04:56:39.916Z,253
2018-07-14T04:57:41.546Z,258
2018-07-14T04:58:43.168Z,258
2018-07-14T04:59:44.796Z,264
2018-07-14T05:00:46.413Z,270
2018-07-14T05:01:48.039Z,270
2018-07-14T05:02:49.664Z,275
2018-07-14T05:03:51.291Z,281
2018-07-14T05:04:52.916Z,286
2018-07-14T05:05:54.538Z,286
2018-07-14T05:06:56.160Z,292
2018-07-14T05:07:57.822Z,298
2018-07-14T05:08:59.412Z,298
2018-07-14T05:10:01.032Z,303
2018-07-14T05:11:02.655Z,309
2018-07-14T05:12:04.292Z,309
2018-07-14T05:13:05.917Z,315
2018-07-14T05:14:07.542Z,315
2018-07-14T05:15:09.167Z,315
2018-07-14T05:16:10.785Z,320
2018-07-14T05:17:12.412Z,326
2018-07-14T05:18:14.031Z,326
2018-07-14T05:19:15.656Z,331
2018-07-14T05:20:17.284Z,337
2018-07-14T05:21:18.907Z,343
2018-07-14T05:22:20.530Z,348
2018-07-14T05:23:22.156Z,360
2018-07-14T05:24:23.772Z,376
2018-07-14T05:25:25.404Z,388
2018-07-14T05:26:27.026Z,405
2018-07-14T05:27:28.651Z,410
2018-07-14T05:28:30.329Z,427
2018-07-14T05:29:31.898Z,438
2018-07-14T05:30:33.520Z,450
2018-07-14T05:31:35.145Z,450
2018-07-14T05:32:36.763Z,455
2018-07-14T05:33:38.385Z,450
2018-07-14T05:34:40.014Z,450
2018-07-14T05:35:41.631Z,450
2018-07-14T05:36:43.258Z,455
2018-07-14T05:37:44.882Z,455
2018-07-14T05:38:46.501Z,461
2018-07-14T05:39:48.123Z,478
2018-07-14T05:40:49.751Z,495
2018-07-14T05:41:51.385Z,523
2018-07-14T05:42:53.009Z,556
2018-07-14T05:43:54.641Z,579
2018-07-14T05:44:56.246Z,596
2018-07-14T05:45:57.873Z,607
2018-07-14T05:46:59.493Z,618
2018-07-14T05:48:01.113Z,630
2018-07-14T05:49:02.753Z,646
2018-07-14T05:50:04.381Z,663
2018-07-14T05:51:06.003Z,663
2018-07-14T05:52:07.637Z,663
2018-07-14T05:53:09.242Z,405
2018-07-14T05:54:10.865Z,618
2018-07-14T05:55:12.489Z,596
2018-07-14T05:56:14.217Z,573
2018-07-14T05:57:17.615Z,568
2018-07-14T05:58:19.173Z,556
2018-07-14T05:59:20.800Z,551
2018-07-14T06:00:22.533Z,556
2018-07-14T06:01:24.119Z,551
2018-07-14T06:02:25.739Z,568
2018-07-14T06:03:27.372Z,562
2018-07-14T06:04:28.994Z,562
2018-07-14T06:05:32.087Z,562
2018-07-14T06:06:33.737Z,562
2018-07-14T06:07:35.467Z,562
2018-07-14T06:08:37.073Z,579
2018-07-14T06:09:38.701Z,596
2018-07-14T06:10:40.346Z,607
2018-07-14T06:11:41.968Z,618
2018-07-14T06:12:43.590Z,663
2018-07-14T06:13:46.669Z,686
2018-07-14T06:14:47.616Z,703
2018-07-14T06:15:50.639Z,855
2018-07-14T06:16:52.275Z,821
2018-07-14T06:17:53.898Z,787
2018-07-14T06:18:55.527Z,866
2018-07-14T06:19:57.144Z,877
2018-07-14T06:20:58.973Z,838
2018-07-14T06:22:00.591Z,1665
2018-07-14T06:23:02.225Z,1575
2018-07-14T06:24:03.848Z,866
2018-07-14T06:25:05.473Z,1473
2018-07-14T06:26:07.105Z,1665
2018-07-14T06:27:08.727Z,1681
2018-07-14T06:28:10.356Z,1878
2018-07-14T06:29:11.987Z,1800
2018-07-14T06:30:13.611Z,1805
2018-07-14T06:31:15.254Z,1636
2018-07-14T06:32:17.012Z,1614
2018-07-14T06:33:18.645Z,1603
2018-07-14T06:34:20.276Z,1558
2018-07-14T06:35:21.897Z,933
2018-07-14T06:36:23.531Z,1693
2018-07-14T06:37:25.167Z,1260
2018-07-14T06:38:26.822Z,1693
2018-07-14T06:39:28.419Z,1715
2018-07-14T06:40:30.052Z,1580
2018-07-14T06:41:31.673Z,1743
2018-07-14T06:42:33.305Z,1816
2018-07-14T06:43:34.934Z,1732
2018-07-14T06:44:36.602Z,1856
2018-07-14T06:45:38.188Z,1726
2018-07-14T06:46:39.823Z,1777
2018-07-14T06:47:41.461Z,1873
2018-07-14T06:48:43.091Z,2148
2018-07-14T06:49:44.726Z,2266
2018-07-14T06:50:46.426Z,2013
2018-07-14T06:51:49.848Z,1906
2018-07-14T06:52:51.499Z,1940
2018-07-14T06:53:53.184Z,2008
2018-07-14T06:54:54.880Z,2002
2018-07-14T06:55:56.573Z,2008
2018-07-14T06:56:58.277Z,2103
2018-07-14T06:57:59.968Z,2058
2018-07-14T06:59:01.595Z,1929
2018-07-14T07:00:03.229Z,1963
2018-07-14T07:01:04.911Z,2041
2018-07-14T07:02:06.551Z,2244
2018-07-14T07:03:08.176Z,2418
2018-07-14T07:04:09.809Z,2480
2018-07-14T07:05:11.439Z,2548
2018-07-14T07:06:13.069Z,2604
2018-07-14T07:07:14.702Z,2553
2018-07-14T07:08:16.336Z,2632
2018-07-14T07:09:18.036Z,2885
2018-07-14T07:10:19.657Z,3076
2018-07-14T07:11:21.346Z,3065
2018-07-14T07:12:23.003Z,2908
2018-07-14T07:13:24.633Z,2508
2018-07-14T07:14:26.273Z,1923
2018-07-14T07:15:28.016Z,1485
2018-07-14T07:16:29.646Z,1350
2018-07-14T07:17:31.283Z,1681
2018-07-14T07:18:32.922Z,1681
2018-07-14T07:19:34.561Z,1428
2018-07-14T07:20:36.202Z,1378
2018-07-14T07:21:37.874Z,1271
2018-07-14T07:22:39.510Z,1186
2018-07-14T07:23:41.141Z,1271
2018-07-14T07:24:42.776Z,1608
2018-07-14T07:25:44.411Z,1833
2018-07-14T07:26:46.047Z,2008
2018-07-14T07:27:47.675Z,2036
2018-07-14T07:28:49.338Z,2075
2018-07-14T07:29:51.002Z,2081
2018-07-14T07:30:52.638Z,2019
2018-07-14T07:31:54.304Z,1980
2018-07-14T07:32:55.938Z,2025
2018-07-14T07:33:57.603Z,2058
2018-07-14T07:34:59.217Z,2058
2018-07-14T07:36:00.837Z,2047
2018-07-14T07:37:02.469Z,2075
2018-07-14T07:38:04.111Z,2131
2018-07-14T07:39:05.748Z,2148
2018-07-14T07:40:07.382Z,2126
2018-07-14T07:41:09.012Z,2154
2018-07-14T07:42:10.709Z,2154
2018-07-14T07:43:12.291Z,2160
2018-07-14T07:44:13.918Z,2154
2018-07-14T07:45:15.556Z,2188
2018-07-14T07:46:17.202Z,2205
2018-07-14T07:47:18.829Z,2244
2018-07-14T07:48:20.465Z,2266
2018-07-14T07:49:22.106Z,2300
2018-07-14T07:50:23.735Z,2300
2018-07-14T07:51:25.375Z,2345
2018-07-14T07:52:27.013Z,2351
2018-07-14T07:53:28.686Z,2345
2018-07-14T07:54:30.288Z,2351
2018-07-14T07:55:31.923Z,2340
2018-07-14T07:56:33.563Z,2340
2018-07-14T07:57:35.195Z,2362
2018-07-14T07:58:36.839Z,2379
2018-07-14T07:59:38.479Z,2390
2018-07-14T08:00:40.110Z,2401
2018-07-14T08:01:41.753Z,2401
2018-07-14T08:02:43.387Z,2396
2018-07-14T08:03:45.019Z,990
2018-07-14T08:04:46.658Z,2345
2018-07-14T08:05:48.294Z,2340
2018-07-14T08:06:49.939Z,2356
2018-07-14T08:07:51.570Z,2345
2018-07-14T08:08:53.209Z,2351
2018-07-14T08:09:54.842Z,2356
2018-07-14T08:10:56.478Z,2345
2018-07-14T08:11:58.124Z,2351
2018-07-14T08:12:59.768Z,2362
2018-07-14T08:14:01.408Z,2356
2018-07-14T08:15:03.040Z,2351
2018-07-14T08:16:04.708Z,2351
2018-07-14T08:17:06.316Z,2351
2018-07-14T08:18:07.955Z,2362
2018-07-14T08:19:09.591Z,2379
2018-07-14T08:20:11.237Z,2356
2018-07-14T08:21:12.874Z,2362
2018-07-14T08:22:14.508Z,2356
2018-07-14T08:23:16.154Z,2362
2018-07-14T08:24:17.790Z,2323
2018-07-14T08:25:19.434Z,2463
2018-07-14T08:26:21.071Z,2413
2018-07-14T08:27:22.710Z,2396
2018-07-14T08:28:24.350Z,2413
2018-07-14T08:29:25.992Z,2368
2018-07-14T08:30:27.625Z,2311
2018-07-14T08:31:29.262Z,2345
2018-07-14T08:32:31.002Z,2373
2018-07-14T08:33:32.543Z,2418
2018-07-14T08:34:34.182Z,2430
2018-07-14T08:35:35.826Z,2463
2018-07-14T08:36:37.457Z,2525
2018-07-14T08:37:39.099Z,2913
2018-07-14T08:38:40.740Z,3414
2018-07-14T08:39:42.380Z,3588
2018-07-14T08:40:44.025Z,3498
2018-07-14T08:41:45.659Z,3571
2018-07-14T08:42:47.302Z,3735
2018-07-14T08:43:48.989Z,3796
2018-07-14T08:44:50.589Z,3706
2018-07-14T08:45:52.265Z,3684
2018-07-14T08:46:53.971Z,3819
2018-07-14T08:47:55.616Z,4100
2018-07-14T08:48:57.257Z,4021
2018-07-14T08:49:58.895Z,4106
2018-07-14T08:51:00.532Z,4156
2018-07-14T08:52:02.176Z,4123
2018-07-14T08:53:03.810Z,4353
2018-07-14T08:54:05.453Z,5400
2018-07-14T08:55:07.092Z,5664
2018-07-14T08:56:08.729Z,5478
2018-07-14T08:57:10.369Z,5400
2018-07-14T08:58:12.043Z,5490
2018-07-14T08:59:13.646Z,5574
2018-07-14T09:00:15.280Z,5675
2018-07-14T09:01:16.931Z,5681
2018-07-14T09:02:18.569Z,5731
2018-07-14T09:03:20.216Z,5596
2018-07-14T09:04:21.853Z,5411
2018-07-14T09:05:23.497Z,5338
2018-07-14T09:06:25.132Z,4955
2018-07-14T09:07:26.775Z,4972
2018-07-14T09:08:28.415Z,5208
2018-07-14T09:09:30.054Z,5416
2018-07-14T09:10:31.698Z,5332
2018-07-14T09:11:33.344Z,5338
2018-07-14T09:12:34.982Z,5405
2018-07-14T09:13:36.624Z,5265
2018-07-14T09:14:38.262Z,5540
2018-07-14T09:15:39.905Z,5861
2018-07-14T09:16:41.551Z,5855
2018-07-14T09:17:43.192Z,5866
2018-07-14T09:18:44.838Z,6097
2018-07-14T09:19:46.475Z,5850
2018-07-14T09:20:48.126Z,5388
2018-07-14T09:21:49.776Z,5546
2018-07-14T09:22:51.416Z,6001
2018-07-14T09:23:53.058Z,6226
2018-07-14T09:24:54.704Z,6288
2018-07-14T09:25:56.345Z,6142
2018-07-14T09:26:57.990Z,6204
2018-07-14T09:27:59.636Z,6176
2018-07-14T09:29:01.284Z,5748
2018-07-14T09:30:02.915Z,4950
2018-07-14T09:31:04.559Z,4696
2018-07-14T09:32:06.201Z,5394
2018-07-14T09:33:07.846Z,5512
2018-07-14T09:34:09.484Z,5023
2018-07-14T09:35:11.130Z,5090
2018-07-14T09:36:12.768Z,5388
2018-07-14T09:37:14.410Z,5478
2018-07-14T09:38:16.057Z,5236
2018-07-14T09:39:17.707Z,5242
2018-07-14T09:40:19.353Z,5670
2018-07-14T09:41:20.990Z,5855
2018-07-14T09:42:22.636Z,5596
2018-07-14T09:43:24.279Z,5377
2018-07-14T09:44:25.923Z,5383
2018-07-14T09:45:27.570Z,5506
2018-07-14T09:46:29.218Z,6058
2018-07-14T09:47:30.863Z,6525
2018-07-14T09:48:32.505Z,6727
2018-07-14T09:49:34.145Z,6710
2018-07-14T09:50:35.788Z,6716
2018-07-14T09:51:37.430Z,6626
2018-07-14T09:52:39.079Z,6367
2018-07-14T09:53:40.726Z,6395
2018-07-14T09:54:42.363Z,6221
2018-07-14T09:55:44.012Z,6013
2018-07-14T09:56:45.647Z,6069
2018-07-14T09:57:47.297Z,6097
2018-07-14T09:58:48.944Z,6080
2018-07-14T09:59:50.583Z,5793
2018-07-14T10:00:52.231Z,5917
2018-07-14T10:01:53.873Z,5771
2018-07-14T10:02:55.513Z,5079
2018-07-14T10:03:57.160Z,5231
2018-07-14T10:04:58.797Z,5844
2018-07-14T10:06:00.483Z,5872
2018-07-14T10:07:02.090Z,5760
2018-07-14T10:08:03.732Z,5850
2018-07-14T10:09:05.382Z,6131
2018-07-14T10:10:07.093Z,6249
2018-07-14T10:11:08.669Z,6035
2018-07-14T10:12:10.307Z,5861
2018-07-14T10:13:12.028Z,5833
2018-07-14T10:14:13.557Z,5495
2018-07-14T10:15:15.197Z,4055
2018-07-14T10:16:16.848Z,2103
2018-07-14T10:17:18.494Z,4764
2018-07-14T10:18:20.130Z,4635
2018-07-14T10:19:21.773Z,6131
2018-07-14T10:20:23.412Z,5990
2018-07-14T10:21:25.059Z,5776
2018-07-14T10:22:26.701Z,5928
2018-07-14T10:23:28.347Z,6001
2018-07-14T10:24:29.990Z,5996
2018-07-14T10:25:31.729Z,6075
2018-07-14T10:26:33.289Z,6097
2018-07-14T10:27:34.924Z,6198
2018-07-14T10:28:36.562Z,6474
2018-07-14T10:29:38.206Z,6345
2018-07-14T10:30:39.854Z,6300
2018-07-14T10:31:41.495Z,6423
2018-07-14T10:32:43.144Z,6423
2018-07-14T10:33:44.881Z,6406
2018-07-14T10:34:46.428Z,6412
2018-07-14T10:35:48.072Z,6440
2018-07-14T10:36:49.721Z,6412
2018-07-14T10:37:51.368Z,6406
2018-07-14T10:38:53.079Z,6553
2018-07-14T10:39:54.646Z,6333
2018-07-14T10:40:56.290Z,6086
2018-07-14T10:41:57.943Z,6333
2018-07-14T10:42:59.582Z,6429
2018-07-14T10:44:01.227Z,6525
2018-07-14T10:45:02.876Z,6451
2018-07-14T10:46:04.527Z,6412
2018-07-14T10:47:06.168Z,6519
2018-07-14T10:48:07.813Z,6665
2018-07-14T10:49:09.451Z,6654
2018-07-14T10:50:11.095Z,6435
2018-07-14T10:51:12.745Z,6390
2018-07-14T10:52:14.387Z,6356
2018-07-14T10:53:16.035Z,6367
2018-07-14T10:54:17.684Z,6339
2018-07-14T10:55:19.329Z,6176
2018-07-14T10:56:20.971Z,6311
2018-07-14T10:57:22.614Z,6345
2018-07-14T10:58:24.262Z,6114
2018-07-14T10:59:25.905Z,6288
2018-07-14T11:00:27.544Z,6300
2018-07-14T11:01:29.195Z,6103
2018-07-14T11:02:30.829Z,6384
2018-07-14T11:03:32.481Z,6401
2018-07-14T11:04:34.206Z,6125
2018-07-14T11:05:35.770Z,6153
2018-07-14T11:06:37.419Z,6333
2018-07-14T11:07:39.085Z,6283
2018-07-14T11:08:40.727Z,6204
2018-07-14T11:09:42.372Z,6294
2018-07-14T11:10:44.020Z,6429
2018-07-14T11:11:45.662Z,6198
2018-07-14T11:12:47.312Z,6316
2018-07-14T11:13:49.480Z,6536
2018-07-14T11:14:51.118Z,6643
2018-07-14T11:15:52.766Z,6564
2018-07-14T11:16:54.413Z,6457
2018-07-14T11:17:56.099Z,6412
2018-07-14T11:18:57.700Z,6384
2018-07-14T11:19:59.346Z,6502
2018-07-14T11:21:00.986Z,6586
2018-07-14T11:22:02.636Z,6811
2018-07-14T11:23:04.278Z,6676
2018-07-14T11:24:05.924Z,6581
2018-07-14T11:25:07.570Z,4640
2018-07-14T11:26:09.215Z,6384
2018-07-14T11:27:10.863Z,6395
2018-07-14T11:28:12.506Z,6395
2018-07-14T11:29:14.158Z,6395
2018-07-14T11:30:15.871Z,6485
2018-07-14T11:31:17.440Z,6378
2018-07-14T11:32:19.087Z,5827
2018-07-14T11:33:20.732Z,4629
2018-07-14T11:34:22.381Z,5551
2018-07-14T11:35:24.027Z,2998
2018-07-14T11:36:25.666Z,1535
2018-07-14T11:37:27.313Z,1316
2018-07-14T11:38:28.954Z,1293
2018-07-14T11:39:30.598Z,1338
2018-07-14T11:40:32.244Z,1597
2018-07-14T11:41:33.885Z,1659
2018-07-14T11:42:35.532Z,1890
2018-07-14T11:43:37.167Z,2368
2018-07-14T11:44:38.812Z,4803
2018-07-14T11:45:40.450Z,6103
2018-07-14T11:46:42.095Z,6086
2018-07-14T11:47:43.738Z,5715
2018-07-14T11:48:45.373Z,6204
2018-07-14T11:49:47.020Z,6345
2018-07-14T11:50:48.656Z,6238
2018-07-14T11:51:50.294Z,6440
2018-07-14T11:52:51.937Z,6187
2018-07-14T11:53:53.578Z,6001
2018-07-14T11:54:55.222Z,6226
2018-07-14T11:55:56.862Z,6474
2018-07-14T11:56:58.504Z,5878
2018-07-14T11:58:00.145Z,2396
2018-07-14T11:59:01.781Z,2272
2018-07-14T12:00:03.427Z,4595
2018-07-14T12:01:05.064Z,1681
2018-07-14T12:02:06.783Z,5439
2018-07-14T12:03:08.348Z,5805
2018-07-14T12:04:09.986Z,5951
2018-07-14T12:05:11.629Z,6108
2018-07-14T12:06:13.265Z,6384
2018-07-14T12:07:14.935Z,6361
2018-07-14T12:08:16.550Z,5484
2018-07-14T12:09:18.192Z,5771
2018-07-14T12:10:19.829Z,5979
2018-07-14T12:11:21.479Z,6181
2018-07-14T12:12:23.115Z,6069
2018-07-14T12:13:24.802Z,6125
2018-07-14T12:14:26.397Z,6277
2018-07-14T12:15:28.048Z,6356
2018-07-14T12:16:29.690Z,3172
2018-07-14T12:17:31.331Z,6378
2018-07-14T12:18:32.980Z,6001
2018-07-14T12:19:34.617Z,5546
2018-07-14T12:20:36.256Z,6035
2018-07-14T12:21:37.900Z,5945
2018-07-14T12:22:39.543Z,6401
2018-07-14T12:23:41.179Z,6463
2018-07-14T12:24:42.825Z,6682
2018-07-14T12:25:44.471Z,6592
2018-07-14T12:26:46.124Z,6592
2018-07-14T12:27:47.749Z,6446
2018-07-14T12:28:49.387Z,6243
2018-07-14T12:29:51.034Z,6401
2018-07-14T12:30:52.679Z,5934
2018-07-14T12:31:54.323Z,5731
2018-07-14T12:32:55.966Z,2784
2018-07-14T12:33:57.610Z,2227
2018-07-14T12:34:59.250Z,1518
2018-07-14T12:36:00.891Z,1501
2018-07-14T12:37:02.533Z,1760
2018-07-14T12:38:04.172Z,1276
2018-07-14T12:39:05.813Z,1417
2018-07-14T12:40:07.457Z,1726
2018-07-14T12:41:09.092Z,4415
2018-07-14T12:42:10.732Z,5816
2018-07-14T12:43:12.365Z,5681
2018-07-14T12:44:14.011Z,5698
2018-07-14T12:45:15.645Z,5450
2018-07-14T12:46:17.288Z,6339
2018-07-14T12:47:18.927Z,6373
2018-07-14T12:48:20.562Z,6294
2018-07-14T12:49:22.197Z,6215
2018-07-14T12:50:23.841Z,1636
2018-07-14T12:51:25.477Z,1552
2018-07-14T12:52:27.122Z,1591
2018-07-14T12:53:28.765Z,1777
2018-07-14T12:54:30.401Z,2075
2018-07-14T12:55:32.037Z,2716
2018-07-14T12:56:33.675Z,3150
2018-07-14T12:57:35.315Z,5788
2018-07-14T12:58:36.952Z,5686
2018-07-14T12:59:38.591Z,5518
2018-07-14T13:00:40.234Z,5866
2018-07-14T13:01:41.879Z,5726
2018-07-14T13:02:43.518Z,5653
2018-07-14T13:03:45.156Z,5726
2018-07-14T13:04:46.795Z,5433
2018-07-14T13:05:48.439Z,5433
2018-07-14T13:06:50.075Z,5658
2018-07-14T13:07:51.714Z,5585
2018-07-14T13:08:53.356Z,5467
2018-07-14T13:09:54.989Z,5321
2018-07-14T13:10:56.639Z,4978
2018-07-14T13:11:58.275Z,4685
2018-07-14T13:12:59.911Z,4162
2018-07-14T13:14:01.553Z,4100
2018-07-14T13:15:03.190Z,1597
2018-07-14T13:16:04.831Z,1670
2018-07-14T13:17:06.516Z,5304
2018-07-14T13:18:08.103Z,5450
2018-07-14T13:19:09.744Z,5540
2018-07-14T13:20:11.377Z,5692
2018-07-14T13:21:13.020Z,5934
2018-07-14T13:22:14.664Z,5366
2018-07-14T13:23:16.300Z,2435
2018-07-14T13:24:17.941Z,950
2018-07-14T13:25:19.573Z,916
2018-07-14T13:26:21.207Z,871
2018-07-14T13:27:22.847Z,967
2018-07-14T13:28:24.478Z,1130
2018-07-14T13:29:26.117Z,1231
2018-07-14T13:30:27.762Z,4522
2018-07-14T13:31:29.397Z,3515
2018-07-14T13:32:31.032Z,5259
2018-07-14T13:33:32.674Z,5461
2018-07-14T13:34:34.306Z,5203
2018-07-14T13:35:35.953Z,5197
2018-07-14T13:36:37.593Z,5343
2018-07-14T13:37:39.229Z,4865
2018-07-14T13:38:51.259Z,4916
2018-07-14T13:39:42.507Z,4826
2018-07-14T13:40:44.138Z,4522
2018-07-14T13:41:45.793Z,4651
2018-07-14T13:42:47.434Z,4623
2018-07-14T13:43:49.070Z,4381
2018-07-14T13:44:50.714Z,4567
2018-07-14T13:45:52.344Z,4680
2018-07-14T13:46:53.985Z,4826
2018-07-14T13:47:55.619Z,4961
2018-07-14T13:48:57.255Z,5191
2018-07-14T13:49:58.899Z,5450
2018-07-14T13:51:00.532Z,5287
2018-07-14T13:52:02.186Z,5231
2018-07-14T13:53:03.814Z,5175
2018-07-14T13:54:05.447Z,5124
2018-07-14T13:55:07.082Z,5208
2018-07-14T13:56:08.725Z,5214
2018-07-14T13:57:10.388Z,5124
2018-07-14T13:58:12.023Z,4989
2018-07-14T13:59:13.668Z,4786
2018-07-14T14:00:15.298Z,3892
2018-07-14T14:01:16.933Z,3105
2018-07-14T14:02:18.577Z,2390
2018-07-14T14:03:20.214Z,945
2018-07-14T14:04:21.851Z,939
2018-07-14T14:05:23.515Z,995
2018-07-14T14:06:25.122Z,1951
2018-07-14T14:07:26.757Z,1985
2018-07-14T14:08:28.395Z,4578